Tampa, Florida
Current Conditions -  °F | °C
As of 7:53 PM on Tuesday 27 Jan 2015 (Local Time) from KTPA Reporting Station
Clear Clear  
Wind Chill: 62°   Ceiling: Unl
Heat Index: 62°   Visibility: 10mi
Dew Point: 54°   Wind: 7mph
Humidity: 75%   Direction: 310°NW
Pressure: 30"   Gusts: NA
Location:  27.95°N, 82.46°W
Report Text: KTPA 280053Z 31006KT 10SM CLR 17/12 A3000 RMK AO2 SLP159 T01670122
Loading
Personal Weather Stations






























Interactive Weather Map New forecast layout! Learn more

10-Day Weather Forecast

Advertisements
Track Severe Weather on mobile